Time;durP1;ratioP1;P1;durP2;ratioP2;P2;SDS_P1;SDS_P2;PMS_P1;PMS_P2;Temp;Humidity;BMP_temperature;BMP_pressure;BME280_temperature;BME280_humidity;BME280_pressure;Samples;Min_cycle;Max_cycle;Signal;HPM_P1;HPM_P2
2021/03/19 00:01:09;;;;;;;8.93;6.03;;;4.30;72.60;;;;;;5064097;28;27468;-49
2021/03/19 00:03:55;;;;;;;9.65;5.57;;;4.30;72.60;;;;;;5063874;28;27481;-48
2021/03/19 00:06:39;;;;;;;11.43;5.72;;;4.40;72.80;;;;;;5062749;28;27408;-49
2021/03/19 00:09:24;;;;;;;12.38;6.43;;;4.40;72.80;;;;;;5064070;28;27858;-48
2021/03/19 00:12:09;;;;;;;9.65;6.00;;;4.40;72.80;;;;;;5063894;28;27485;-52
2021/03/19 00:14:53;;;;;;;8.40;5.65;;;4.40;72.80;;;;;;5064136;28;26854;-52
2021/03/19 00:17:38;;;;;;;11.20;5.78;;;4.40;72.80;;;;;;5063710;28;27420;-51
2021/03/19 00:20:23;;;;;;;9.13;5.47;;;4.40;72.80;;;;;;5063718;28;27504;-52
2021/03/19 00:23:08;;;;;;;8.38;6.05;;;4.40;72.90;;;;;;5063640;28;27630;-50
2021/03/19 00:25:52;;;;;;;8.50;5.50;;;4.40;73.00;;;;;;5064095;28;27364;-52
2021/03/19 00:28:37;;;;;;;6.97;5.28;;;4.30;72.90;;;;;;5045130;28;27330;-48
2021/03/19 00:31:21;;;;;;;7.88;5.18;;;4.30;72.90;;;;;;5063957;28;27408;-53
2021/03/19 00:34:06;;;;;;;6.70;5.20;;;4.30;72.90;;;;;;5063522;28;27404;-51
2021/03/19 00:36:50;;;;;;;7.57;4.72;;;4.30;72.90;;;;;;5063193;28;27566;-50
2021/03/19 00:39:35;;;;;;;7.80;5.00;;;4.20;73.00;;;;;;5045581;28;27346;-53
2021/03/19 00:42:20;;;;;;;6.38;4.78;;;4.30;73.20;;;;;;5063376;28;27361;-49
2021/03/19 00:45:05;;;;;;;6.22;4.57;;;4.20;73.20;;;;;;5045251;28;27392;-52
2021/03/19 00:47:50;;;;;;;8.77;5.00;;;4.20;73.20;;;;;;5063487;28;27348;-48
2021/03/19 00:50:39;;;;;;;6.40;4.40;;;4.20;73.30;;;;;;5066335;28;27365;-53
2021/03/19 00:53:24;;;;;;;7.95;5.30;;;4.20;73.30;;;;;;5066738;28;27425;-53
2021/03/19 00:56:08;;;;;;;10.60;5.05;;;4.10;73.30;;;;;;5066764;28;27499;-49
2021/03/19 00:58:53;;;;;;;10.27;4.80;;;4.10;73.40;;;;;;5066791;28;27487;-50
2021/03/19 01:01:38;;;;;;;7.95;4.72;;;4.10;73.50;;;;;;5066795;28;27429;-49
2021/03/19 01:04:23;;;;;;;5.93;4.78;;;4.10;73.50;;;;;;5066924;28;28016;-52
2021/03/19 01:07:07;;;;;;;8.63;4.82;;;4.10;73.60;;;;;;5064688;28;27397;-48
2021/03/19 01:09:52;;;;;;;7.80;4.80;;;4.10;73.60;;;;;;5066644;28;27385;-49
2021/03/19 01:12:36;;;;;;;6.22;4.20;;;4.10;73.80;;;;;;5066583;28;27392;-48
2021/03/19 01:15:21;;;;;;;6.25;4.22;;;4.10;73.80;;;;;;5066445;28;28097;-50
2021/03/19 01:18:14;;;;;;;5.85;4.47;;;4.00;73.60;;;;;;5066714;28;27374;-48
2021/03/19 01:20:59;;;;;;;7.57;4.78;;;4.00;73.80;;;;;;5066440;28;27397;-47
2021/03/19 01:23:43;;;;;;;6.45;5.00;;;4.00;73.90;;;;;;5066353;28;27401;-49
2021/03/19 01:26:28;;;;;;;7.60;4.65;;;4.00;73.80;;;;;;5066165;28;27366;-49
2021/03/19 01:29:12;;;;;;;6.05;4.25;;;4.00;73.90;;;;;;5066294;28;27460;-48
2021/03/19 01:31:57;;;;;;;6.00;4.22;;;4.00;73.90;;;;;;5063019;28;27440;-52
2021/03/19 01:34:41;;;;;;;6.13;4.50;;;4.00;74.00;;;;;;5066175;28;27524;-48
2021/03/19 01:37:27;;;;;;;7.80;5.03;;;3.90;74.00;;;;;;5066113;28;27893;-50
2021/03/19 01:40:13;;;;;;;8.43;3.97;;;3.90;74.00;;;;;;5066059;28;27457;-48
2021/03/19 01:42:57;;;;;;;5.53;3.85;;;3.90;74.20;;;;;;5063155;28;27393;-50
2021/03/19 01:46:00;;;;;;;7.25;4.15;;;3.90;74.00;;;;;;5062802;28;27437;-51
2021/03/19 01:49:24;;;;;;;5.40;4.35;;;3.90;74.10;;;;;;5065901;28;27451;-49
2021/03/19 01:52:46;;;;;;;6.95;4.03;;;3.90;74.20;;;;;;5062642;28;27425;-48
2021/03/19 01:56:08;;;;;;;5.78;4.13;;;3.90;74.30;;;;;;5065871;28;27400;-48
2021/03/19 01:59:30;;;;;;;6.78;4.38;;;3.80;74.20;;;;;;5065794;28;27408;-47
2021/03/19 02:02:51;;;;;;;5.95;4.18;;;3.80;74.20;;;;;;5065685;28;27467;-52
2021/03/19 02:06:13;;;;;;;6.30;4.00;;;3.80;74.30;;;;;;5065753;28;27388;-48
2021/03/19 02:09:35;;;;;;;5.40;4.05;;;3.70;74.20;;;;;;5066087;28;27374;-48
2021/03/19 02:12:57;;;;;;;4.70;3.63;;;3.70;74.40;;;;;;5065943;28;27452;-51
2021/03/19 02:16:19;;;;;;;5.88;3.70;;;3.70;74.40;;;;;;5062671;28;27327;-51
2021/03/19 02:19:41;;;;;;;7.60;4.13;;;3.60;74.40;;;;;;5065767;28;27446;-48
2021/03/19 02:23:03;;;;;;;6.85;4.32;;;3.60;74.60;;;;;;5065795;28;27478;-49
2021/03/19 02:26:25;;;;;;;6.85;4.63;;;3.50;74.70;;;;;;5065685;28;27490;-50
2021/03/19 02:29:48;;;;;;;9.10;5.18;;;3.50;74.70;;;;;;5065344;28;27395;-47
2021/03/19 02:32:33;;;;;;;6.15;4.32;;;3.50;75.00;;;;;;5065560;28;27486;-48
2021/03/19 02:35:20;;;;;;;7.90;4.95;;;3.50;75.10;;;;;;5065287;28;27430;-47
2021/03/19 02:38:04;;;;;;;5.30;4.65;;;3.50;75.10;;;;;;5064435;28;27402;-48
2021/03/19 02:40:49;;;;;;;7.68;4.93;;;3.60;75.30;;;;;;5065122;28;27375;-49
2021/03/19 02:43:33;;;;;;;8.73;4.97;;;3.60;75.20;;;;;;5064625;28;27422;-49
2021/03/19 02:46:18;;;;;;;10.88;4.60;;;3.60;75.20;;;;;;5062324;28;27395;-49
2021/03/19 02:49:02;;;;;;;5.82;4.28;;;3.60;75.10;;;;;;5064412;28;27550;-50
2021/03/19 02:51:47;;;;;;;7.03;4.80;;;3.50;75.00;;;;;;5064956;28;27525;-51
2021/03/19 02:54:31;;;;;;;7.95;4.82;;;3.50;75.00;;;;;;5065183;28;27464;-49
2021/03/19 02:57:16;;;;;;;7.57;4.45;;;3.50;74.80;;;;;;5064939;28;27514;-48
2021/03/19 03:00:01;;;;;;;6.05;4.65;;;3.40;74.80;;;;;;5065166;28;27458;-50
2021/03/19 03:02:45;;;;;;;5.25;4.57;;;3.40;74.80;;;;;;5064752;28;27426;-50
2021/03/19 03:05:30;;;;;;;5.90;4.57;;;3.30;74.70;;;;;;5065046;28;27464;-49
2021/03/19 03:08:16;;;;;;;9.15;5.30;;;3.30;74.70;;;;;;5064238;28;27550;-47
2021/03/19 03:11:00;;;;;;;5.60;4.38;;;3.20;74.70;;;;;;5049625;28;27403;-47
2021/03/19 03:13:45;;;;;;;6.68;4.43;;;3.20;74.70;;;;;;5046140;28;27917;-47
2021/03/19 03:16:30;;;;;;;6.05;4.85;;;3.10;74.70;;;;;;5049834;28;27424;-47
2021/03/19 03:19:17;;;;;;;7.30;5.13;;;3.10;74.80;;;;;;5061410;28;27487;-49
2021/03/19 03:22:01;;;;;;;7.05;4.40;;;3.10;75.00;;;;;;5064795;28;27462;-51
2021/03/19 03:24:46;;;;;;;5.75;4.65;;;3.00;74.80;;;;;;5064673;28;27876;-52
2021/03/19 03:27:31;;;;;;;6.22;4.28;;;2.90;74.90;;;;;;5064545;28;27532;-51
2021/03/19 03:30:32;;;;;;;6.10;4.82;;;2.90;75.00;;;;;;5064428;28;27466;-49
2021/03/19 03:33:17;;;;;;;6.72;4.53;;;2.90;75.00;;;;;;5064357;28;27347;-53
2021/03/19 03:36:02;;;;;;;5.80;4.15;;;2.80;75.00;;;;;;5046114;28;27377;-53
2021/03/19 03:38:47;;;;;;;7.00;4.78;;;2.80;75.00;;;;;;5064512;28;27535;-50
2021/03/19 03:41:31;;;;;;;9.52;4.32;;;2.80;75.00;;;;;;5064262;28;27413;-49
2021/03/19 03:44:17;;;;;;;6.97;5.13;;;2.70;75.00;;;;;;5063716;28;27333;-49
2021/03/19 03:47:01;;;;;;;6.10;4.40;;;2.70;74.80;;;;;;5063968;28;27392;-49
2021/03/19 03:49:46;;;;;;;6.00;4.82;;;2.70;74.80;;;;;;5064421;28;27375;-49
2021/03/19 03:52:30;;;;;;;6.93;4.95;;;2.60;74.70;;;;;;5064361;28;27393;-50
2021/03/19 03:55:15;;;;;;;8.00;4.50;;;2.60;74.90;;;;;;5064045;28;27392;-51
2021/03/19 03:58:00;;;;;;;6.95;4.70;;;2.60;74.70;;;;;;5032095;28;27377;-48
2021/03/19 04:00:45;;;;;;;7.15;5.28;;;2.50;74.70;;;;;;5063906;28;27373;-51
2021/03/19 04:03:30;;;;;;;5.97;4.50;;;2.50;74.60;;;;;;5046143;28;27329;-48
2021/03/19 04:06:15;;;;;;;7.78;4.68;;;2.50;74.70;;;;;;5063263;28;27325;-49
2021/03/19 04:08:59;;;;;;;6.10;4.22;;;2.50;74.80;;;;;;5063802;28;27406;-48
2021/03/19 04:11:43;;;;;;;6.50;4.57;;;2.40;74.60;;;;;;5063543;28;27385;-49
2021/03/19 04:14:28;;;;;;;5.97;4.68;;;2.40;74.70;;;;;;5064127;28;27432;-49
2021/03/19 04:17:42;;;;;;;7.43;4.43;;;2.40;74.70;;;;;;5060835;28;27456;-48
2021/03/19 04:20:27;;;;;;;6.78;5.05;;;2.30;74.90;;;;;;5025947;28;27872;-47
2021/03/19 04:23:11;;;;;;;6.03;4.07;;;2.30;74.80;;;;;;5064923;28;27539;-47
2021/03/19 04:25:56;;;;;;;5.97;4.50;;;2.20;74.70;;;;;;5067612;28;27460;-46
2021/03/19 04:28:41;;;;;;;6.60;4.45;;;2.20;74.70;;;;;;5063692;28;27399;-48
2021/03/19 04:31:25;;;;;;;5.38;4.10;;;2.20;74.60;;;;;;5067130;28;27897;-49
2021/03/19 04:34:10;;;;;;;7.72;4.50;;;2.20;74.70;;;;;;5067357;28;27462;-50
2021/03/19 04:36:55;;;;;;;6.72;4.88;;;2.10;74.70;;;;;;5066878;28;27583;-50
2021/03/19 04:39:43;;;;;;;7.50;4.57;;;2.10;74.80;;;;;;5067304;28;27452;-49
2021/03/19 04:42:27;;;;;;;7.70;4.60;;;2.10;75.00;;;;;;5063786;28;27990;-52
2021/03/19 04:45:12;;;;;;;9.55;4.70;;;2.10;75.30;;;;;;5067241;28;27493;-50
2021/03/19 04:47:57;;;;;;;5.82;4.15;;;2.10;75.60;;;;;;5066816;28;27444;-47
2021/03/19 04:50:41;;;;;;;8.32;5.13;;;2.10;76.00;;;;;;5067215;28;26968;-52
2021/03/19 04:53:26;;;;;;;7.20;4.88;;;2.10;76.30;;;;;;5066778;28;27849;-49
2021/03/19 04:56:10;;;;;;;8.55;5.03;;;2.20;76.50;;;;;;5066746;28;27586;-52
2021/03/19 04:58:55;;;;;;;9.00;5.43;;;2.20;76.70;;;;;;5063878;28;27445;-49
2021/03/19 05:02:05;;;;;;;8.82;5.38;;;2.20;76.90;;;;;;5066681;28;27507;-48
2021/03/19 05:04:50;;;;;;;7.47;5.55;;;2.30;77.20;;;;;;5063373;28;27442;-47
2021/03/19 05:07:36;;;;;;;9.35;5.07;;;2.30;77.30;;;;;;5065803;28;27436;-49
2021/03/19 05:10:23;;;;;;;7.85;4.82;;;2.30;77.40;;;;;;5066928;28;27254;-48
2021/03/19 05:13:07;;;;;;;7.85;5.93;;;2.40;77.40;;;;;;5063667;28;27389;-53
2021/03/19 05:15:52;;;;;;;9.18;6.10;;;2.40;77.40;;;;;;5066822;28;27337;-47
2021/03/19 05:18:36;;;;;;;8.07;5.50;;;2.40;77.40;;;;;;5063515;28;27361;-48
2021/03/19 05:21:21;;;;;;;9.27;5.38;;;2.50;77.60;;;;;;5066728;28;27416;-47
2021/03/19 05:24:06;;;;;;;9.52;5.90;;;2.50;77.60;;;;;;5066468;28;27329;-54
2021/03/19 05:26:50;;;;;;;8.38;5.72;;;2.50;77.70;;;;;;5066553;28;27330;-48
2021/03/19 05:29:35;;;;;;;6.90;5.05;;;2.50;77.60;;;;;;5066274;28;27388;-49
2021/03/19 05:32:19;;;;;;;11.93;7.32;;;2.50;77.60;;;;;;5066621;28;27337;-47
2021/03/19 05:35:06;;;;;;;9.18;6.07;;;2.50;77.60;;;;;;5062320;28;27373;-48
2021/03/19 05:37:51;;;;;;;9.82;6.88;;;2.50;77.60;;;;;;5066142;28;27401;-47
2021/03/19 05:40:45;;;;;;;10.90;6.38;;;2.60;77.60;;;;;;5063153;28;27518;-48
2021/03/19 05:43:35;;;;;;;10.00;6.63;;;2.60;77.60;;;;;;5066432;28;27351;-47
2021/03/19 05:46:33;;;;;;;9.80;6.18;;;2.60;77.80;;;;;;5066288;28;27456;-47
2021/03/19 05:49:38;;;;;;;11.20;7.35;;;2.70;77.80;;;;;;5051007;28;27855;-49
2021/03/19 05:52:27;;;;;;;11.05;6.97;;;2.70;77.80;;;;;;5062704;28;27474;-52
2021/03/19 05:55:16;;;;;;;10.35;6.78;;;2.70;77.70;;;;;;5065920;28;27416;-50
2021/03/19 05:58:01;;;;;;;9.48;6.63;;;2.70;77.60;;;;;;5065845;28;27444;-49
2021/03/19 06:00:45;;;;;;;11.95;7.82;;;2.80;77.70;;;;;;5065303;28;28022;-51
2021/03/19 06:03:30;;;;;;;10.30;6.60;;;2.80;77.70;;;;;;5062000;28;27440;-51
2021/03/19 06:06:15;;;;;;;13.60;8.63;;;2.90;77.80;;;;;;5065439;28;27461;-47
2021/03/19 06:08:59;;;;;;;12.20;7.88;;;2.90;77.60;;;;;;5065323;28;27409;-50
2021/03/19 06:11:50;;;;;;;10.70;7.97;;;3.00;77.60;;;;;;5036945;28;27480;-49
2021/03/19 06:14:46;;;;;;;17.85;10.52;;;3.00;77.50;;;;;;5047703;28;27333;-49
2021/03/19 06:17:42;;;;;;;15.07;9.32;;;3.10;77.50;;;;;;5065650;28;27385;-48
2021/03/19 06:20:27;;;;;;;14.05;9.27;;;3.20;77.20;;;;;;5065534;28;27322;-47
2021/03/19 06:23:13;;;;;;;12.43;8.43;;;3.30;77.10;;;;;;5065520;28;28001;-50
2021/03/19 06:26:02;;;;;;;13.32;8.77;;;3.40;76.80;;;;;;5050569;28;27431;-49
2021/03/19 06:28:48;;;;;;;12.43;7.97;;;3.50;76.50;;;;;;5064749;28;27559;-48
2021/03/19 06:31:33;;;;;;;12.63;8.45;;;3.60;76.20;;;;;;5050717;28;26877;-49
2021/03/19 06:34:22;;;;;;;13.75;8.25;;;3.70;75.90;;;;;;5050481;28;27436;-48
2021/03/19 06:37:09;;;;;;;13.05;8.48;;;3.80;75.60;;;;;;5065171;28;27509;-49
2021/03/19 06:39:56;;;;;;;15.75;8.02;;;3.90;75.30;;;;;;5036435;28;27444;-51
2021/03/19 06:42:41;;;;;;;10.02;7.45;;;4.00;75.00;;;;;;5065085;28;27455;-51
2021/03/19 06:45:26;;;;;;;13.63;7.93;;;4.10;75.00;;;;;;5065257;28;28072;-50
2021/03/19 06:48:34;;;;;;;14.60;8.75;;;4.10;74.70;;;;;;5064009;28;27476;-50
2021/03/19 06:51:33;;;;;;;12.90;8.30;;;4.20;74.60;;;;;;5065360;28;27382;-51
2021/03/19 06:54:47;;;;;;;14.00;8.63;;;4.20;74.30;;;;;;5064996;28;27399;-49
2021/03/19 06:57:48;;;;;;;11.68;7.78;;;4.30;74.30;;;;;;5064314;28;27391;-52
2021/03/19 07:00:40;;;;;;;10.40;6.90;;;4.40;74.10;;;;;;5065066;28;27393;-48
2021/03/19 07:03:37;;;;;;;10.50;7.47;;;4.40;75.00;;;;;;5064919;28;27407;-47
2021/03/19 07:06:48;;;;;;;12.93;7.90;;;4.40;74.20;;;;;;5064673;28;27421;-49
2021/03/19 07:09:54;;;;;;;12.68;8.00;;;4.50;74.10;;;;;;5064642;28;27432;-50
2021/03/19 07:13:03;;;;;;;12.00;7.68;;;4.50;74.10;;;;;;5064863;28;27519;-48
2021/03/19 07:16:04;;;;;;;11.18;7.45;;;4.60;73.80;;;;;;5064983;28;27418;-47
2021/03/19 07:19:00;;;;;;;11.38;7.60;;;4.70;73.60;;;;;;5064879;28;27458;-48
2021/03/19 07:22:22;;;;;;;10.52;7.57;;;4.90;73.40;;;;;;5064770;28;27403;-50
2021/03/19 07:25:13;;;;;;;11.50;7.82;;;5.10;72.80;;;;;;5061479;28;27391;-49
2021/03/19 07:28:05;;;;;;;10.95;7.97;;;5.30;72.40;;;;;;5064305;28;27467;-53
2021/03/19 07:31:16;;;;;;;12.13;8.02;;;5.50;72.10;;;;;;5064729;28;26853;-52
2021/03/19 07:34:24;;;;;;;12.80;7.60;;;5.50;71.60;;;;;;5064241;28;27397;-49
2021/03/19 07:37:24;;;;;;;12.15;8.02;;;5.60;71.50;;;;;;5064507;28;27408;-48
2021/03/19 07:40:17;;;;;;;10.80;7.90;;;5.60;71.40;;;;;;5064554;28;27390;-48
2021/03/19 07:43:14;;;;;;;12.35;8.25;;;5.70;71.80;;;;;;5064524;28;27472;-49
2021/03/19 07:46:29;;;;;;;11.82;8.10;;;5.70;71.80;;;;;;5064223;28;27394;-49
2021/03/19 07:49:51;;;;;;;13.77;8.35;;;5.70;71.90;;;;;;5064422;28;27406;-48
2021/03/19 07:52:55;;;;;;;10.68;7.85;;;5.60;72.30;;;;;;5045887;28;27479;-50
2021/03/19 07:56:01;;;;;;;10.02;8.05;;;5.60;72.20;;;;;;5064294;28;27463;-52
2021/03/19 07:58:58;;;;;;;12.85;8.18;;;5.50;72.60;;;;;;5063806;28;27890;-48
2021/03/19 08:01:56;;;;;;;10.38;8.07;;;5.50;72.50;;;;;;5049035;28;27508;-51
2021/03/19 08:04:42;;;;;;;11.57;7.75;;;5.40;72.80;;;;;;5064307;28;27318;-46
2021/03/19 08:07:31;;;;;;;11.25;8.27;;;5.50;72.90;;;;;;5063496;28;27397;-49
2021/03/19 08:10:27;;;;;;;12.90;8.07;;;5.50;72.70;;;;;;5048489;28;27411;-51
2021/03/19 08:13:42;;;;;;;12.88;8.63;;;5.60;72.70;;;;;;5064078;28;27363;-52
2021/03/19 08:16:28;;;;;;;10.63;8.73;;;5.80;72.10;;;;;;5064147;28;27484;-54
2021/03/19 08:19:29;;;;;;;15.07;8.98;;;6.00;71.80;;;;;;5045709;28;27497;-51
2021/03/19 08:22:27;;;;;;;11.63;9.05;;;6.30;71.60;;;;;;5048723;28;27902;-49
2021/03/19 08:25:19;;;;;;;10.38;8.32;;;6.50;70.80;;;;;;5048997;28;27571;-52
2021/03/19 08:28:30;;;;;;;13.23;9.30;;;6.70;70.50;;;;;;5063419;28;27476;-53
2021/03/19 08:31:29;;;;;;;12.48;9.30;;;7.00;69.50;;;;;;5063908;28;27329;-48
2021/03/19 08:34:28;;;;;;;14.85;9.63;;;7.20;69.20;;;;;;5045793;28;27600;-48
2021/03/19 08:37:40;;;;;;;16.65;9.95;;;7.40;68.40;;;;;;5050190;28;27432;-48
2021/03/19 08:40:30;;;;;;;12.93;9.57;;;7.50;68.50;;;;;;5032575;28;27653;-52
2021/03/19 08:43:27;;;;;;;13.38;8.50;;;7.50;68.40;;;;;;5063852;28;27354;-50
2021/03/19 08:46:32;;;;;;;12.73;9.25;;;7.50;68.10;;;;;;5047917;28;27338;-52
2021/03/19 08:49:25;;;;;;;13.30;9.32;;;7.40;68.10;;;;;;5063378;28;27381;-54
2021/03/19 08:52:37;;;;;;;12.32;9.45;;;7.30;68.40;;;;;;5063609;28;27411;-48
2021/03/19 08:55:23;;;;;;;11.07;9.38;;;7.20;68.70;;;;;;5063088;28;27586;-49
2021/03/19 08:58:29;;;;;;;12.32;9.18;;;7.10;69.30;;;;;;5060038;28;27439;-50
2021/03/19 09:01:13;;;;;;;12.68;9.07;;;7.00;69.50;;;;;;5059481;28;27479;-50
2021/03/19 09:03:58;;;;;;;12.23;9.05;;;7.00;69.80;;;;;;5059972;28;27476;-48
2021/03/19 09:07:21;;;;;;;11.48;8.57;;;7.00;69.80;;;;;;5062963;28;27411;-53
2021/03/19 09:10:18;;;;;;;13.20;9.15;;;6.90;70.00;;;;;;5025704;28;28007;-50
2021/03/19 09:13:08;;;;;;;12.82;8.88;;;7.00;70.20;;;;;;5063622;28;27582;-52
2021/03/19 09:15:54;;;;;;;12.32;8.48;;;7.10;70.10;;;;;;5066901;28;27349;-48
2021/03/19 09:18:43;;;;;;;11.80;8.30;;;7.20;69.80;;;;;;5066782;28;27384;-52
2021/03/19 09:21:37;;;;;;;10.60;8.50;;;7.30;70.20;;;;;;5066763;28;27401;-52
2021/03/19 09:24:23;;;;;;;12.57;8.35;;;7.40;69.60;;;;;;5066357;28;27476;-48
2021/03/19 09:27:20;;;;;;;14.00;8.27;;;7.40;69.60;;;;;;5066579;28;27460;-53
2021/03/19 09:30:13;;;;;;;14.27;8.57;;;7.50;69.70;;;;;;5051337;28;27386;-53
2021/03/19 09:32:59;;;;;;;11.90;8.80;;;7.50;69.60;;;;;;5066333;28;27468;-51
2021/03/19 09:35:45;;;;;;;11.70;8.57;;;7.50;69.40;;;;;;5066399;28;27406;-49
2021/03/19 09:38:29;;;;;;;11.30;7.93;;;7.60;69.50;;;;;;5066247;28;27329;-52
2021/03/19 09:41:14;;;;;;;9.30;7.22;;;7.60;69.60;;;;;;5063107;28;27305;-50
2021/03/19 09:43:59;;;;;;;9.63;7.47;;;7.70;69.50;;;;;;5065411;28;27397;-53
2021/03/19 09:46:43;;;;;;;10.77;7.53;;;7.70;69.20;;;;;;5051211;28;27549;-52
2021/03/19 09:49:28;;;;;;;11.02;7.57;;;7.70;69.20;;;;;;5066246;28;27413;-53
2021/03/19 09:52:17;;;;;;;9.18;7.28;;;7.70;69.10;;;;;;5066296;28;27464;-53
2021/03/19 09:55:15;;;;;;;8.38;6.90;;;7.70;69.00;;;;;;5051097;28;27421;-50
2021/03/19 09:57:59;;;;;;;8.48;6.50;;;7.70;68.70;;;;;;5062997;28;27455;-54
2021/03/19 10:01:09;;;;;;;8.63;6.78;;;7.70;68.80;;;;;;5051181;28;27424;-49
2021/03/19 10:03:59;;;;;;;11.13;7.05;;;7.80;68.50;;;;;;5036914;28;27341;-51
2021/03/19 10:06:46;;;;;;;8.50;6.22;;;7.80;68.80;;;;;;5066945;28;27433;-52
2021/03/19 10:09:49;;;;;;;8.15;6.40;;;7.90;68.60;;;;;;5066003;28;27452;-49
2021/03/19 10:12:35;;;;;;;7.75;6.35;;;7.90;68.70;;;;;;5047770;28;27463;-49
2021/03/19 10:15:25;;;;;;;7.90;6.20;;;8.00;68.80;;;;;;5065937;28;26916;-49
2021/03/19 10:18:25;;;;;;;7.55;6.47;;;8.00;68.20;;;;;;5065490;28;27986;-52
2021/03/19 10:21:17;;;;;;;8.90;6.10;;;8.10;68.60;;;;;;5051447;28;27444;-51
2021/03/19 10:24:02;;;;;;;7.05;6.18;;;8.30;67.70;;;;;;5065795;28;27427;-49
2021/03/19 10:26:50;;;;;;;7.95;6.40;;;8.50;66.60;;;;;;5065781;28;27318;-50
2021/03/19 10:29:36;;;;;;;7.75;6.20;;;8.70;66.10;;;;;;5050424;28;27475;-52
2021/03/19 10:32:22;;;;;;;10.07;6.45;;;9.00;65.60;;;;;;5065673;28;27499;-55
2021/03/19 10:35:10;;;;;;;8.93;6.55;;;9.50;64.50;;;;;;5062484;28;27389;-55
2021/03/19 10:38:35;;;;;;;7.18;5.75;;;9.90;63.10;;;;;;5047231;28;27387;-55
2021/03/19 10:41:22;;;;;;;8.40;6.22;;;10.30;62.30;;;;;;5061906;28;27874;-50
2021/03/19 10:44:19;;;;;;;6.78;5.43;;;10.20;61.90;;;;;;5065173;28;27350;-52
2021/03/19 10:47:16;;;;;;;7.57;6.00;;;10.00;61.80;;;;;;5036638;28;27518;-50
2021/03/19 10:50:11;;;;;;;8.43;6.43;;;9.70;62.20;;;;;;5033746;28;27464;-48
2021/03/19 10:53:04;;;;;;;7.65;6.43;;;9.50;62.60;;;;;;5047345;28;27459;-53
2021/03/19 10:55:50;;;;;;;8.88;7.00;;;9.70;62.70;;;;;;5065497;28;27672;-52
2021/03/19 10:58:41;;;;;;;8.13;6.40;;;9.80;62.60;;;;;;5065026;28;27460;-55
2021/03/19 11:01:33;;;;;;;7.07;5.93;;;9.90;62.70;;;;;;5048772;28;27392;-53
2021/03/19 11:04:34;;;;;;;8.57;7.32;;;9.90;63.10;;;;;;5064815;28;27429;-53
2021/03/19 11:07:26;;;;;;;8.48;7.10;;;9.90;63.10;;;;;;5064160;28;27415;-52
2021/03/19 11:10:16;;;;;;;9.07;7.10;;;10.00;62.60;;;;;;5065162;28;27326;-54
2021/03/19 11:13:07;;;;;;;11.32;7.07;;;10.40;61.60;;;;;;5061019;28;27471;-56
2021/03/19 11:15:54;;;;;;;8.02;6.28;;;11.30;60.00;;;;;;5064880;28;27843;-58
2021/03/19 11:18:39;;;;;;;6.75;5.45;;;12.40;58.00;;;;;;5064911;28;27603;-59
2021/03/19 11:21:28;;;;;;;6.28;5.20;;;13.80;55.60;;;;;;5049895;28;27503;-58
2021/03/19 11:24:23;;;;;;;6.28;5.57;;;15.20;53.30;;;;;;5049747;28;27474;-58
2021/03/19 11:27:13;;;;;;;6.25;5.35;;;16.60;51.20;;;;;;5061525;28;27461;-58
2021/03/19 11:30:11;;;;;;;6.20;5.25;;;17.90;49.00;;;;;;5064430;28;27404;-58
2021/03/19 11:33:17;;;;;;;4.55;4.15;;;19.10;46.60;;;;;;5063619;28;27475;-59
2021/03/19 11:36:13;;;;;;;5.00;4.45;;;20.30;45.60;;;;;;5046739;28;27463;-58
2021/03/19 11:39:11;;;;;;;4.20;3.80;;;20.80;43.00;;;;;;5064312;28;27475;-58
2021/03/19 11:41:55;;;;;;;4.53;3.72;;;20.70;44.40;;;;;;5064285;28;27400;-59
2021/03/19 11:44:41;;;;;;;4.35;3.10;;;21.10;43.00;;;;;;5064549;28;27373;-58
2021/03/19 11:47:31;;;;;;;3.67;3.35;;;21.50;42.50;;;;;;5060801;28;27350;-58
2021/03/19 11:50:25;;;;;;;3.15;2.85;;;21.60;41.80;;;;;;5063982;28;27476;-59
2021/03/19 11:53:12;;;;;;;2.95;2.70;;;22.00;41.00;;;;;;5064195;28;27410;-58
2021/03/19 11:55:57;;;;;;;3.03;2.72;;;22.00;41.30;;;;;;5063555;28;27567;-58
2021/03/19 11:58:42;;;;;;;2.88;2.58;;;21.40;40.40;;;;;;5046055;28;27431;-58
2021/03/19 12:01:30;;;;;;;2.38;2.17;;;20.70;40.30;;;;;;5064175;28;27994;-58
2021/03/19 12:04:19;;;;;;;2.67;2.45;;;19.90;41.70;;;;;;5064003;28;27377;-59
2021/03/19 12:07:04;;;;;;;2.92;2.50;;;19.00;43.10;;;;;;5063330;28;26973;-58
2021/03/19 12:09:50;;;;;;;2.63;2.17;;;18.40;44.10;;;;;;5063823;28;27421;-58
2021/03/19 12:12:35;;;;;;;2.60;2.40;;;18.00;45.10;;;;;;5063782;28;27405;-58
2021/03/19 12:15:20;;;;;;;2.50;2.30;;;17.60;45.80;;;;;;5063752;28;27472;-58
2021/03/19 12:18:04;;;;;;;3.05;2.75;;;17.10;46.10;;;;;;5063909;28;27487;-58
2021/03/19 12:20:49;;;;;;;2.90;2.55;;;16.60;47.20;;;;;;5063752;28;27472;-57
2021/03/19 12:23:34;;;;;;;4.82;2.53;;;16.20;48.00;;;;;;5063102;28;27619;-55
2021/03/19 12:26:18;;;;;;;3.00;2.55;;;15.70;48.70;;;;;;5063973;28;27410;-57
2021/03/19 12:29:03;;;;;;;3.60;3.15;;;15.10;49.70;;;;;;5045241;28;27304;-53
2021/03/19 12:31:47;;;;;;;4.60;2.67;;;14.60;50.50;;;;;;5063906;28;27325;-56
2021/03/19 12:34:32;;;;;;;3.33;3.00;;;14.20;51.20;;;;;;5063825;28;27865;-56
2021/03/19 12:37:17;;;;;;;3.17;2.80;;;14.00;52.30;;;;;;5063869;28;27511;-56
2021/03/19 12:40:02;;;;;;;5.65;3.35;;;13.90;51.90;;;;;;5060664;28;27433;-56
2021/03/19 12:42:47;;;;;;;3.15;2.55;;;13.90;51.80;;;;;;5048827;28;26960;-56
2021/03/19 12:45:33;;;;;;;5.68;2.80;;;13.90;51.90;;;;;;5066608;28;27334;-56
2021/03/19 12:48:17;;;;;;;4.93;2.88;;;13.90;51.90;;;;;;5066195;28;27409;-55
2021/03/19 12:51:02;;;;;;;3.03;2.72;;;13.90;51.80;;;;;;5067295;28;27341;-56
2021/03/19 12:53:47;;;;;;;3.55;2.63;;;13.80;51.70;;;;;;5067275;28;27385;-55
2021/03/19 12:56:31;;;;;;;3.15;2.33;;;13.70;51.10;;;;;;5066879;28;27326;-55
2021/03/19 12:59:16;;;;;;;3.00;2.70;;;13.60;51.40;;;;;;5048930;28;27329;-56
2021/03/19 13:02:01;;;;;;;3.85;2.60;;;13.30;51.40;;;;;;5066836;28;27396;-55
2021/03/19 13:04:45;;;;;;;3.55;3.20;;;13.10;51.80;;;;;;5066729;28;27404;-57
2021/03/19 13:07:30;;;;;;;4.07;3.17;;;13.30;52.50;;;;;;5065970;28;27456;-57
2021/03/19 13:10:16;;;;;;;3.70;3.20;;;14.20;51.70;;;;;;5066621;28;27397;-57
2021/03/19 13:13:01;;;;;;;3.17;2.80;;;14.70;50.40;;;;;;5048468;28;27400;-57
2021/03/19 13:15:46;;;;;;;3.95;3.30;;;14.80;50.10;;;;;;5066292;28;27334;-57
2021/03/19 13:18:30;;;;;;;4.07;3.58;;;14.80;49.50;;;;;;5051714;28;27365;-56
2021/03/19 13:21:15;;;;;;;4.22;3.55;;;14.90;49.10;;;;;;5066741;28;27349;-57
2021/03/19 13:24:00;;;;;;;4.78;3.78;;;15.10;49.10;;;;;;5066774;28;27345;-57
2021/03/19 13:26:45;;;;;;;4.20;3.63;;;15.00;48.90;;;;;;5066689;28;27375;-57
2021/03/19 13:29:29;;;;;;;5.65;4.00;;;14.80;48.60;;;;;;5066532;28;27859;-57
2021/03/19 13:32:14;;;;;;;4.63;4.03;;;14.70;47.90;;;;;;5066518;28;27410;-56
2021/03/19 13:34:58;;;;;;;5.95;4.65;;;14.50;48.50;;;;;;5066567;28;27429;-55
2021/03/19 13:37:43;;;;;;;4.85;4.13;;;14.30;49.10;;;;;;5066451;28;26908;-56
2021/03/19 13:40:28;;;;;;;5.28;4.50;;;14.00;50.00;;;;;;5066315;28;27452;-56
2021/03/19 13:43:14;;;;;;;6.70;5.70;;;13.70;50.90;;;;;;5065932;28;27483;-56
2021/03/19 13:45:59;;;;;;;6.22;5.05;;;13.30;51.10;;;;;;5066137;28;27465;-55
2021/03/19 13:48:44;;;;;;;7.32;5.70;;;13.00;51.10;;;;;;5065867;28;27403;-55
2021/03/19 13:51:29;;;;;;;8.10;6.38;;;12.60;51.70;;;;;;5065958;28;27352;-55
2021/03/19 13:54:14;;;;;;;7.50;6.35;;;12.30;52.40;;;;;;5065933;28;27521;-55
2021/03/19 13:57:00;;;;;;;9.38;6.65;;;12.20;52.90;;;;;;5065223;28;27504;-55
2021/03/19 13:59:45;;;;;;;8.85;6.85;;;12.10;53.20;;;;;;5065981;28;27384;-55
2021/03/19 14:02:30;;;;;;;8.90;6.70;;;12.00;53.80;;;;;;5066103;28;27318;-56
2021/03/19 14:05:14;;;;;;;9.05;7.22;;;12.00;53.20;;;;;;5065895;28;27508;-55
2021/03/19 14:08:00;;;;;;;11.90;7.20;;;11.90;53.90;;;;;;5061801;28;27391;-56
2021/03/19 14:10:44;;;;;;;11.88;7.93;;;11.90;54.40;;;;;;5085625;28;27328;-56
2021/03/19 14:13:29;;;;;;;11.52;7.22;;;11.90;53.30;;;;;;5085449;28;27453;-55
2021/03/19 14:16:13;;;;;;;11.52;7.65;;;11.70;53.80;;;;;;5086133;28;27434;-55
2021/03/19 14:18:58;;;;;;;10.02;8.23;;;11.50;54.20;;;;;;5085941;28;27479;-55
2021/03/19 14:21:44;;;;;;;11.20;8.77;;;11.40;54.60;;;;;;5085804;28;27481;-56
2021/03/19 14:24:28;;;;;;;10.48;7.95;;;11.30;54.20;;;;;;5085923;28;27966;-56
2021/03/19 14:27:13;;;;;;;12.68;9.00;;;11.30;54.30;;;;;;5085931;28;27497;-55
2021/03/19 14:29:57;;;;;;;12.32;8.38;;;11.20;54.20;;;;;;5085760;28;27478;-56
2021/03/19 14:32:42;;;;;;;11.20;8.38;;;11.10;54.90;;;;;;5085971;28;27435;-56
2021/03/19 14:35:26;;;;;;;13.48;8.70;;;11.00;54.50;;;;;;5085877;28;27452;-54
2021/03/19 14:38:12;;;;;;;10.93;8.07;;;10.90;54.70;;;;;;5085132;28;27423;-53
2021/03/19 14:40:57;;;;;;;10.60;8.07;;;10.80;55.40;;;;;;5085865;28;27475;-57
2021/03/19 14:43:42;;;;;;;17.50;8.63;;;10.80;55.50;;;;;;5085532;28;27395;-56
2021/03/19 14:46:27;;;;;;;17.27;8.70;;;10.60;55.20;;;;;;5084700;28;27495;-55
2021/03/19 14:49:12;;;;;;;16.17;9.15;;;10.50;55.10;;;;;;5085352;28;27463;-55
2021/03/19 14:51:56;;;;;;;15.00;9.25;;;10.40;55.30;;;;;;5085641;28;27390;-56